Time;durP1;ratioP1;P1;durP2;ratioP2;P2;SDS_P1;SDS_P2;PMS_P1;PMS_P2;Temp;Humidity;BMP_temperature;BMP_pressure;BME280_temperature;BME280_humidity;BME280_pressure;Samples;Min_cycle;Max_cycle;Signal;HPM_P1;HPM_P2
2022/05/18 00:01:33;;;;;;;19.02;12.23;;;;;;;17.64;79.93;101769.78;7394860;19;20448;-64
2022/05/18 00:04:04;;;;;;;17.33;11.52;;;;;;;17.61;80.20;101776.09;7393959;19;20022;-64
2022/05/18 00:06:35;;;;;;;19.13;11.80;;;;;;;17.66;79.69;101778.47;7393230;19;20029;-64
2022/05/18 00:09:05;;;;;;;16.40;11.35;;;;;;;17.81;78.52;101780.22;7394838;19;20118;-61
2022/05/18 00:11:34;;;;;;;15.25;11.13;;;;;;;17.66;79.65;101786.44;7394278;19;20025;-61
2022/05/18 00:14:03;;;;;;;18.00;11.95;;;;;;;17.72;79.45;101780.75;7394272;19;20486;-61
2022/05/18 00:16:32;;;;;;;16.25;11.80;;;;;;;17.65;79.99;101790.00;7392118;19;20053;-63
2022/05/18 00:19:01;;;;;;;14.82;11.00;;;;;;;17.74;79.45;101788.66;7394755;19;20006;-64
2022/05/18 00:21:31;;;;;;;17.50;12.00;;;;;;;17.59;80.74;101791.22;7393479;19;20360;-65
2022/05/18 00:24:03;;;;;;;19.27;12.25;;;;;;;17.67;80.08;101793.44;7394296;19;20417;-62
2022/05/18 00:26:33;;;;;;;18.15;12.07;;;;;;;17.68;80.05;101792.50;7392204;19;20023;-61
2022/05/18 00:29:03;;;;;;;16.42;12.20;;;;;;;17.50;80.39;101789.13;7394504;19;20091;-63
2022/05/18 00:31:32;;;;;;;18.25;11.60;;;;;;;17.37;81.75;101791.63;7393470;19;20033;-64
2022/05/18 00:34:00;;;;;;;18.42;12.15;;;;;;;17.36;81.66;101794.38;7394875;19;20014;-64
2022/05/18 00:36:29;;;;;;;19.33;11.80;;;;;;;17.43;81.42;101785.97;7391703;19;20018;-64
2022/05/18 00:38:58;;;;;;;17.98;12.30;;;;;;;17.25;81.97;101797.63;7395395;19;20482;-64
2022/05/18 00:41:30;;;;;;;18.92;12.57;;;;;;;17.16;82.39;101790.22;7395790;19;20009;-63
2022/05/18 00:43:59;;;;;;;18.05;11.95;;;;;;;17.23;82.17;101786.28;7394034;19;20018;-61
2022/05/18 00:46:28;;;;;;;20.27;12.95;;;;;;;17.12;82.59;101786.88;7392762;19;20483;-64
2022/05/18 00:49:00;;;;;;;18.30;11.90;;;;;;;17.00;83.63;101785.78;7390735;19;20019;-64
2022/05/18 00:51:32;;;;;;;18.35;12.50;;;;;;;17.15;82.95;101789.38;7392591;19;20468;-64
2022/05/18 00:54:05;;;;;;;19.47;13.70;;;;;;;17.09;83.25;101789.69;7392268;19;20032;-64
2022/05/18 00:56:41;;;;;;;17.27;12.40;;;;;;;17.16;82.86;101792.88;7390789;19;20484;-65
2022/05/18 00:59:14;;;;;;;18.05;12.98;;;;;;;16.99;83.97;101793.81;7392710;19;20017;-63
2022/05/18 01:01:42;;;;;;;;;;;;;;;17.05;83.67;101798.75;7392940;19;20033;-64
2022/05/18 01:04:12;;;;;;;20.17;13.65;;;;;;;17.01;84.20;101789.28;7393307;19;19963;-63
2022/05/18 01:06:45;;;;;;;18.05;13.32;;;;;;;17.11;83.61;101795.78;7391894;19;20022;-63
2022/05/18 01:09:17;;;;;;;;;;;;;;;17.12;83.21;101794.81;7393213;19;20361;-61
2022/05/18 01:11:48;;;;;;;21.40;14.45;;;;;;;17.00;84.38;101799.00;7392659;19;19923;-63
2022/05/18 01:14:22;;;;;;;19.23;13.57;;;;;;;17.03;84.25;101801.47;7393924;19;20011;-64
2022/05/18 01:16:52;;;;;;;19.92;14.27;;;;;;;16.88;84.76;101805.84;7389970;19;20022;-64
2022/05/18 01:19:31;;;;;;;21.90;14.48;;;;;;;17.19;83.49;101805.94;7391341;19;20499;-64
2022/05/18 01:22:10;;;;;;;19.33;14.48;;;;;;;16.88;85.21;101812.94;7391762;19;20018;-67
2022/05/18 01:24:46;;;;;;;21.35;15.20;;;;;;;17.00;84.18;101822.00;7391772;19;20021;-65
2022/05/18 01:27:18;;;;;;;22.25;15.00;;;;;;;16.99;84.83;101815.00;7392606;19;20225;-63
2022/05/18 01:29:47;;;;;;;23.08;15.02;;;;;;;17.07;84.05;101808.31;7391496;19;20029;-64
2022/05/18 01:32:18;;;;;;;21.02;15.90;;;;;;;16.87;85.16;101811.19;7393261;19;20018;-64
2022/05/18 01:34:48;;;;;;;19.92;14.52;;;;;;;17.04;84.49;101797.06;7394054;19;20021;-64
2022/05/18 01:37:18;;;;;;;21.75;15.43;;;;;;;16.88;85.23;101803.19;7391912;19;20021;-62
2022/05/18 01:39:52;;;;;;;19.58;14.82;;;;;;;16.87;85.16;101801.44;7392342;19;20480;-63
2022/05/18 01:42:32;;;;;;;19.92;14.55;;;;;;;16.84;85.55;101798.13;7394099;19;20057;-62
2022/05/18 01:45:01;;;;;;;24.77;16.00;;;;;;;16.79;86.12;101806.31;7392704;19;20598;-65
2022/05/18 01:47:35;;;;;;;22.20;16.27;;;;;;;16.89;85.61;101806.69;7391879;19;20015;-63
2022/05/18 01:50:07;;;;;;;21.80;16.00;;;;;;;16.83;85.98;101813.16;7391145;19;20018;-64
2022/05/18 01:52:36;;;;;;;21.25;15.30;;;;;;;16.68;86.92;101812.19;7393860;19;20025;-65
2022/05/18 01:55:07;;;;;;;24.38;15.50;;;;;;;16.86;86.32;101805.03;7393137;19;20014;-66
2022/05/18 01:57:39;;;;;;;21.30;16.17;;;;;;;16.90;85.91;101800.47;7394620;19;20018;-66
2022/05/18 02:00:11;;;;;;;20.52;16.02;;;;;;;16.79;86.46;101808.94;7396159;19;20018;-65
2022/05/18 02:02:43;;;;;;;23.33;16.45;;;;;;;16.78;86.34;101805.47;7399513;19;20014;-65
2022/05/18 02:05:12;;;;;;;22.15;16.15;;;;;;;16.84;86.20;101803.44;7401462;19;20037;-65
2022/05/18 02:07:41;;;;;;;22.25;15.70;;;;;;;16.86;86.12;101805.03;7401011;19;20007;-65
2022/05/18 02:10:11;;;;;;;20.48;16.30;;;;;;;16.91;86.18;101810.97;7402858;19;20456;-65
2022/05/18 02:12:43;;;;;;;22.10;15.77;;;;;;;16.93;85.71;101809.06;7401365;19;20025;-64
2022/05/18 02:15:13;;;;;;;23.15;17.73;;;;;;;16.91;85.67;101805.69;7396876;19;20018;-63
2022/05/18 02:17:43;;;;;;;23.27;16.90;;;;;;;16.90;85.56;101806.59;7393103;19;20015;-65
2022/05/18 02:20:13;;;;;;;24.85;17.48;;;;;;;16.80;86.70;101804.53;7392110;19;20022;-65
2022/05/18 02:22:42;;;;;;;22.55;17.30;;;;;;;16.94;85.76;101802.00;7391094;19;20018;-65
2022/05/18 02:25:11;;;;;;;22.48;17.10;;;;;;;16.74;86.53;101803.06;7389935;19;20020;-64
2022/05/18 02:27:43;;;;;;;21.73;17.02;;;;;;;16.86;86.22;101805.03;7390536;19;20026;-65
2022/05/18 02:30:13;;;;;;;24.35;17.70;;;;;;;16.88;86.20;101807.66;7389247;19;20022;-64
2022/05/18 02:32:42;;;;;;;21.40;16.50;;;;;;;16.89;86.05;101809.34;7389475;19;20029;-65
2022/05/18 02:35:12;;;;;;;25.40;17.98;;;;;;;16.78;86.64;101799.31;7389212;19;20025;-65
2022/05/18 02:37:42;;;;;;;28.08;18.30;;;;;;;16.70;87.21;101802.38;7390136;19;20029;-65
2022/05/18 02:40:12;;;;;;;24.38;17.55;;;;;;;16.71;87.04;101801.44;7388797;19;20021;-65
2022/05/18 02:42:44;;;;;;;22.60;16.92;;;;;;;16.67;86.94;101797.25;7389821;19;20014;-65
2022/05/18 02:45:13;;;;;;;22.85;18.17;;;;;;;16.66;87.47;101790.25;7388084;19;20748;-66
2022/05/18 02:47:42;;;;;;;23.90;18.30;;;;;;;16.82;86.06;101803.53;7389970;19;20019;-64
2022/05/18 02:50:11;;;;;;;22.70;16.55;;;;;;;16.74;86.56;101800.44;7388412;19;20360;-65
2022/05/18 02:52:40;;;;;;;26.00;17.83;;;;;;;16.44;88.21;101785.28;7386885;19;20006;-64
2022/05/18 02:57:56;;;;;;;22.58;18.00;;;;;;;16.63;87.06;101790.41;7389369;19;20382;-63
2022/05/18 03:00:25;;;;;;;24.77;17.33;;;;;;;16.45;87.58;101789.63;7388120;19;20121;-64
2022/05/18 03:02:54;;;;;;;41.53;31.45;;;;;;;16.40;88.23;101794.31;7389216;19;20018;-65
2022/05/18 03:05:23;;;;;;;27.40;22.20;;;;;;;16.47;87.98;101806.25;7388666;19;20014;-65
2022/05/18 03:07:52;;;;;;;28.02;20.20;;;;;;;16.54;87.63;101796.22;7388628;19;20018;-64
2022/05/18 03:10:21;;;;;;;21.73;18.63;;;;;;;16.52;87.61;101798.94;7388238;19;20014;-66
2022/05/18 03:12:49;;;;;;;31.83;18.83;;;;;;;16.51;87.19;101796.38;7388693;19;20547;-63
2022/05/18 03:15:21;;;;;;;22.58;18.23;;;;;;;16.48;87.60;101794.75;7387485;19;20022;-64
2022/05/18 03:17:50;;;;;;;23.70;18.20;;;;;;;16.42;88.05;101798.59;7387836;19;20456;-65
2022/05/18 03:25:42;;;;;;;23.42;17.80;;;;;;;16.37;87.80;101810.34;7393970;19;20018;-66
2022/05/18 03:28:11;;;;;;;24.50;18.02;;;;;;;16.49;87.23;101801.75;7395606;19;20011;-65
2022/05/18 03:30:42;;;;;;;21.33;17.30;;;;;;;16.48;87.07;101809.78;7394874;19;20015;-65
2022/05/18 03:33:11;;;;;;;23.95;17.85;;;;;;;16.46;87.68;101815.13;7395364;19;20014;-65
2022/05/18 03:35:40;;;;;;;23.05;18.05;;;;;;;16.34;87.86;101815.78;7394135;19;20026;-63
2022/05/18 03:38:09;;;;;;;25.02;17.50;;;;;;;16.46;87.11;101823.06;7395026;19;20018;-66
2022/05/18 03:40:38;;;;;;;21.38;16.55;;;;;;;16.45;87.25;101826.66;7394967;19;20487;-65
2022/05/18 03:43:08;;;;;;;23.73;17.00;;;;;;;16.41;87.30;101825.97;7395935;19;20022;-65
2022/05/18 03:45:40;;;;;;;21.90;16.88;;;;;;;16.39;87.82;101821.69;7395174;19;20487;-64
2022/05/18 03:48:13;;;;;;;22.80;16.88;;;;;;;16.58;87.00;101833.00;7395702;19;20107;-64
2022/05/18 03:50:45;;;;;;;22.58;16.63;;;;;;;16.54;86.67;101834.09;7395332;19;20017;-61
2022/05/18 03:53:15;;;;;;;21.52;16.67;;;;;;;16.48;87.31;101834.44;7395776;19;20132;-61
2022/05/18 03:55:45;;;;;;;22.85;16.15;;;;;;;16.38;87.79;101839.34;7393977;19;20306;-61
2022/05/18 03:58:16;;;;;;;21.70;16.70;;;;;;;16.42;87.53;101830.31;7395072;19;20011;-60
2022/05/18 04:00:47;;;;;;;21.05;16.17;;;;;;;16.47;87.73;101837.16;7394058;19;20026;-60
2022/05/18 04:03:20;;;;;;;24.63;16.33;;;;;;;16.21;88.40;101829.66;7395764;19;20018;-63
2022/05/18 04:05:51;;;;;;;25.48;17.45;;;;;;;16.31;87.64;101832.69;7393398;19;20019;-63
2022/05/18 04:08:20;;;;;;;20.38;15.88;;;;;;;16.19;89.62;101836.81;7395312;19;20456;-63
2022/05/18 04:10:49;;;;;;;22.10;15.52;;;;;;;16.42;87.39;101837.41;7392785;19;20006;-61
2022/05/18 04:13:20;;;;;;;23.20;15.38;;;;;;;16.40;87.48;101849.84;7394945;19;20017;-61
2022/05/18 04:15:49;;;;;;;19.58;14.10;;;;;;;16.49;86.37;101848.50;7393875;19;20464;-62
2022/05/18 04:18:22;;;;;;;19.35;15.23;;;;;;;16.35;87.08;101838.69;7394474;19;20010;-60
2022/05/18 04:20:52;;;;;;;66.38;15.55;;;;;;;16.41;86.57;101851.56;7394216;19;20043;-63
2022/05/18 04:23:23;;;;;;;35.60;14.35;;;;;;;16.60;85.40;101851.44;7394542;19;20018;-60
2022/05/18 04:25:52;;;;;;;17.40;12.75;;;;;;;16.55;85.26;101859.63;7393869;19;20052;-64
2022/05/18 04:28:21;;;;;;;21.33;13.60;;;;;;;16.70;84.59;101857.09;7393781;19;20019;-62
2022/05/18 04:30:51;;;;;;;18.73;13.07;;;;;;;16.72;84.24;101852.56;7391820;19;20026;-64
2022/05/18 04:33:24;;;;;;;15.75;12.75;;;;;;;16.51;85.32;101854.59;7394315;19;20014;-65
2022/05/18 04:35:54;;;;;;;18.83;12.68;;;;;;;16.65;84.51;101854.72;7393149;19;20459;-64
2022/05/18 04:38:24;;;;;;;14.65;12.27;;;;;;;16.72;83.92;101858.75;7394130;19;20007;-63
2022/05/18 04:40:53;;;;;;;13.68;11.70;;;;;;;16.67;84.05;101855.47;7393533;19;20033;-64
2022/05/18 04:43:22;;;;;;;17.90;12.20;;;;;;;16.77;84.27;101869.06;7393914;19;20108;-65
2022/05/18 04:45:52;;;;;;;16.30;11.77;;;;;;;16.69;84.44;101876.56;7392820;19;20334;-63
2022/05/18 04:48:25;;;;;;;16.75;11.73;;;;;;;16.69;84.27;101871.28;7394097;19;20021;-62
2022/05/18 04:50:55;;;;;;;18.27;11.27;;;;;;;16.73;84.09;101863.06;7393475;19;20467;-62
2022/05/18 04:53:24;;;;;;;15.27;10.95;;;;;;;16.90;83.12;101866.66;7393735;19;20014;-62
2022/05/18 04:55:53;;;;;;;18.70;11.88;;;;;;;16.89;83.11;101876.41;7392722;19;20010;-64
2022/05/18 04:58:22;;;;;;;14.82;11.65;;;;;;;16.94;82.88;101863.75;7394261;19;20089;-61
2022/05/18 05:00:59;;;;;;;15.93;11.27;;;;;;;17.02;82.19;101865.13;7393222;19;20031;-64
2022/05/18 05:03:31;;;;;;;12.68;10.82;;;;;;;16.88;82.87;101884.44;7393402;19;20046;-63
2022/05/18 05:06:00;;;;;;;13.00;11.52;;;;;;;17.07;82.72;101884.28;7392345;19;20018;-64
2022/05/18 05:08:29;;;;;;;18.20;12.27;;;;;;;16.95;82.91;101878.72;7393794;19;20022;-64
2022/05/18 05:10:58;;;;;;;14.98;11.40;;;;;;;16.99;82.61;101887.31;7392385;19;20018;-63
2022/05/18 05:13:27;;;;;;;16.33;12.05;;;;;;;17.04;82.79;101881.78;7393256;19;20045;-64
2022/05/18 05:16:02;;;;;;;15.15;11.30;;;;;;;17.03;82.47;101890.66;7392318;19;20468;-62
2022/05/18 05:18:34;;;;;;;30.75;12.60;;;;;;;17.19;82.02;101885.38;7393001;19;20010;-65
2022/05/18 05:21:03;;;;;;;13.43;9.70;;;;;;;17.10;80.96;101887.59;7392663;19;20052;-63
2022/05/18 05:23:32;;;;;;;15.35;10.25;;;;;;;17.27;80.86;101883.19;7393214;19;20014;-63
2022/05/18 05:26:02;;;;;;;17.08;10.20;;;;;;;17.32;80.50;101885.56;7392341;19;20022;-65
2022/05/18 05:28:31;;;;;;;19.95;9.98;;;;;;;17.28;79.88;101885.72;7393211;19;20019;-61
2022/05/18 05:31:03;;;;;;;19.35;9.52;;;;;;;17.33;79.62;101892.56;7391862;19;20021;-61
2022/05/18 05:33:37;;;;;;;12.33;9.63;;;;;;;17.41;79.54;101890.34;7392774;19;20011;-60
2022/05/18 05:36:06;;;;;;;24.83;10.35;;;;;;;17.53;78.88;101896.75;7391240;19;20033;-63
2022/05/18 05:38:36;;;;;;;11.65;9.63;;;;;;;17.61;78.90;101898.03;7393376;19;20018;-65
2022/05/18 05:41:05;;;;;;;15.45;9.55;;;;;;;17.58;77.90;101895.56;7391951;19;20015;-62
2022/05/18 05:43:34;;;;;;;12.85;9.30;;;;;;;17.66;77.97;101895.09;7390292;19;20011;-65
2022/05/18 05:46:05;;;;;;;117.82;18.27;;;;;;;17.78;78.20;101889.13;7392812;19;20114;-61
2022/05/18 05:48:38;;;;;;;14.20;9.35;;;;;;;17.77;77.03;101891.84;7392954;19;20007;-63
2022/05/18 05:51:10;;;;;;;13.52;9.20;;;;;;;17.82;76.96;101895.06;7393013;19;20337;-63
2022/05/18 05:53:39;;;;;;;16.05;9.13;;;;;;;17.84;77.14;101906.47;7392809;19;20018;-63
2022/05/18 05:56:09;;;;;;;15.57;8.57;;;;;;;17.94;77.01;101902.38;7389828;19;20069;-64
2022/05/18 05:58:39;;;;;;;10.52;8.52;;;;;;;17.89;77.24;101922.09;7391862;19;20014;-65
2022/05/18 06:01:11;;;;;;;23.02;10.27;;;;;;;17.99;77.02;101894.13;7391682;19;20058;-64
2022/05/18 06:03:44;;;;;;;12.00;9.40;;;;;;;18.06;76.42;101903.44;7391244;19;20028;-64
2022/05/18 06:06:13;;;;;;;12.40;8.80;;;;;;;18.12;76.23;101910.19;7391684;19;20030;-63
2022/05/18 06:08:43;;;;;;;31.00;10.32;;;;;;;18.28;75.88;101911.00;7391993;19;20460;-60
2022/05/18 06:11:13;;;;;;;16.65;8.80;;;;;;;18.41;75.50;101905.81;7391595;19;20122;-65
2022/05/18 06:13:42;;;;;;;13.25;8.90;;;;;;;18.48;74.75;101903.63;7392354;19;20021;-60
2022/05/18 06:16:12;;;;;;;19.17;9.52;;;;;;;18.58;74.59;101904.75;7389565;19;20030;-60
2022/05/18 06:18:43;;;;;;;35.55;10.82;;;;;;;18.60;74.06;101907.34;7391564;19;20145;-63
2022/05/18 06:21:12;;;;;;;16.88;9.43;;;;;;;18.62;74.40;101913.41;7391760;19;20019;-63
2022/05/18 06:23:41;;;;;;;14.95;9.30;;;;;;;18.78;73.74;101911.53;7392367;19;20021;-65
2022/05/18 06:26:10;;;;;;;17.88;9.18;;;;;;;18.92;73.18;101905.38;7391052;19;20010;-63
2022/05/18 06:28:41;;;;;;;13.18;8.40;;;;;;;18.87;72.77;101912.81;7391499;19;20353;-62
2022/05/18 06:31:10;;;;;;;14.18;9.15;;;;;;;18.79;72.72;101905.25;7394365;19;20011;-63
2022/05/18 06:33:40;;;;;;;13.88;8.45;;;;;;;18.86;73.33;101908.41;7395127;19;20111;-64
2022/05/18 06:36:12;;;;;;;16.48;8.52;;;;;;;18.84;73.48;101908.50;7393871;19;20472;-64
2022/05/18 06:38:41;;;;;;;401.90;41.45;;;;;;;18.95;73.47;101922.94;7393087;19;20014;-64
2022/05/18 06:41:25;;;;;;;84.25;14.32;;;;;;;19.01;73.03;101914.56;7392209;19;20018;-62
2022/05/18 06:43:56;;;;;;;14.63;8.38;;;;;;;19.05;72.47;101920.56;7391010;19;20021;-62
2022/05/18 06:46:28;;;;;;;15.73;8.75;;;;;;;19.04;72.69;101924.16;7392295;19;20026;-62
2022/05/18 06:48:58;;;;;;;17.52;8.48;;;;;;;19.08;72.71;101921.22;7396553;19;20019;-59
2022/05/18 06:51:32;;;;;;;17.15;8.15;;;;;;;19.15;72.95;101922.53;7402005;19;20018;-63
2022/05/18 06:54:01;;;;;;;14.75;8.35;;;;;;;19.25;72.70;101925.47;7404464;19;20365;-63
2022/05/18 06:56:31;;;;;;;32.95;10.23;;;;;;;19.47;71.35;101934.72;7407729;19;20017;-61
2022/05/18 06:59:01;;;;;;;13.70;8.98;;;;;;;19.59;70.36;101928.63;7408439;19;20021;-63
2022/05/18 07:01:30;;;;;;;12.32;8.10;;;;;;;19.79;70.29;101923.84;7407853;19;20034;-61
2022/05/18 07:04:00;;;;;;;23.30;9.65;;;;;;;19.97;69.29;101927.09;7407855;19;20027;-59
2022/05/18 07:06:35;;;;;;;12.40;7.95;;;;;;;20.09;67.46;101934.25;7406395;19;20030;-59
2022/05/18 07:09:06;;;;;;;10.45;8.25;;;;;;;20.23;65.89;101930.66;7406141;19;20030;-63
2022/05/18 07:11:36;;;;;;;11.80;8.40;;;;;;;20.17;66.11;101931.06;7406377;19;20022;-62
2022/05/18 07:14:06;;;;;;;12.43;8.45;;;;;;;20.16;64.32;101940.88;7404194;19;20034;-65
2022/05/18 07:16:36;;;;;;;12.15;8.20;;;;;;;20.15;64.54;101941.81;7400754;19;20017;-62
2022/05/18 07:19:05;;;;;;;13.25;9.13;;;;;;;20.07;64.16;101936.16;7400914;19;20015;-63
2022/05/18 07:21:36;;;;;;;21.08;10.38;;;;;;;20.15;63.37;101946.31;7399999;19;20015;-64
2022/05/18 07:24:06;;;;;;;30.33;10.30;;;;;;;20.10;64.40;101943.09;7401429;19;20018;-62
2022/05/18 07:26:36;;;;;;;15.05;10.75;;;;;;;20.11;63.92;101942.97;7398458;19;20019;-64
2022/05/18 07:29:06;;;;;;;133.98;19.30;;;;;;;20.18;64.59;101944.28;7375000;19;20010;-62
2022/05/18 07:32:08;;;;;;;14.63;10.57;;;;;;;20.18;64.06;101948.75;7396578;19;20018;-64
2022/05/18 07:34:26;;;;;;;16.70;11.52;;;;;;;20.22;65.03;101952.91;7398591;19;20010;-61
2022/05/18 07:36:58;;;;;;;16.08;10.90;;;;;;;20.26;63.67;101956.22;7395655;19;20025;-62
2022/05/18 07:39:28;;;;;;;21.20;11.30;;;;;;;20.35;64.15;101947.63;7397275;19;20019;-63
2022/05/18 07:41:58;;;;;;;22.92;11.50;;;;;;;20.43;64.12;101961.28;7397822;19;20014;-62
2022/05/18 07:44:27;;;;;;;18.23;12.55;;;;;;;20.42;63.30;101962.22;7399086;19;20023;-60
2022/05/18 07:46:56;;;;;;;16.77;12.13;;;;;;;20.40;63.29;101972.09;7395358;19;20011;-61
2022/05/18 07:49:25;;;;;;;17.13;11.75;;;;;;;20.46;63.76;101966.38;7397008;19;20017;-61
2022/05/18 07:51:57;;;;;;;43.75;17.55;;;;;;;20.36;65.54;101971.47;7397677;19;20007;-62
2022/05/18 07:54:25;;;;;;;15.52;12.55;;;;;;;20.28;64.31;101967.63;7396518;19;20014;-63
2022/05/18 07:56:54;;;;;;;51.38;13.95;;;;;;;20.38;64.84;101974.88;7395639;19;20019;-62
2022/05/18 07:59:23;;;;;;;41.17;13.55;;;;;;;20.32;65.76;101979.78;7396261;19;20022;-62
2022/05/18 08:01:52;;;;;;;20.88;13.77;;;;;;;20.44;65.41;101981.59;7397081;19;20006;-63
2022/05/18 08:04:21;;;;;;;19.45;14.43;;;;;;;20.30;65.10;101981.66;7397286;19;20034;-61
2022/05/18 08:06:50;;;;;;;29.38;15.20;;;;;;;20.38;65.06;101990.00;7394950;19;20336;-62
2022/05/18 08:09:22;;;;;;;19.70;14.70;;;;;;;20.46;65.57;101981.50;7394788;19;20582;-65
2022/05/18 08:17:17;;;;;;;23.00;16.40;;;;;;;20.81;63.66;102000.41;7396854;19;20082;-60
2022/05/18 08:19:46;;;;;;;19.88;15.85;;;;;;;20.93;62.66;101990.72;7395954;19;20498;-62
2022/05/18 08:22:16;;;;;;;22.02;15.98;;;;;;;20.82;63.78;101988.81;7396943;19;20014;-62
2022/05/18 08:24:48;;;;;;;24.10;16.38;;;;;;;20.92;64.32;101989.03;7395909;19;20023;-64
2022/05/18 08:27:18;;;;;;;24.60;16.70;;;;;;;20.95;63.93;101985.28;7395702;19;20393;-62
2022/05/18 08:29:47;;;;;;;48.17;18.52;;;;;;;21.13;63.03;101988.47;7396294;19;20954;-61
2022/05/18 08:32:16;;;;;;;25.10;17.30;;;;;;;21.13;63.94;101983.16;7394777;19;20010;-64
2022/05/18 08:34:45;;;;;;;24.25;17.92;;;;;;;20.96;63.19;101984.31;7396863;19;20025;-60
2022/05/18 08:37:14;;;;;;;28.40;17.35;;;;;;;21.18;63.67;101983.69;7397146;19;20017;-64
2022/05/18 08:39:43;;;;;;;23.50;17.50;;;;;;;20.96;63.82;101990.53;7395216;19;20011;-62
2022/05/18 08:42:15;;;;;;;20.75;17.20;;;;;;;21.22;63.95;101986.03;7394667;19;20646;-60
2022/05/18 08:44:44;;;;;;;23.13;17.67;;;;;;;21.22;63.24;101991.34;7395881;19;20010;-61
2022/05/18 08:47:21;;;;;;;231.60;33.42;;;;;;;21.39;63.87;101989.28;7395894;19;20282;-59
2022/05/18 08:49:59;;;;;;;25.73;17.20;;;;;;;21.54;64.11;101993.53;7393894;19;20815;-60
2022/05/18 08:52:42;;;;;;;206.23;33.10;;;;;;;21.71;62.76;101989.66;7394610;19;20364;-64
2022/05/18 08:55:35;;;;;;;64.93;19.85;;;;;;;21.69;63.39;101983.59;7394298;19;20022;-64
2022/05/18 08:58:12;;;;;;;27.08;18.65;;;;;;;21.54;63.19;101990.03;7395621;19;20053;-64
2022/05/18 09:00:45;;;;;;;22.65;16.30;;;;;;;21.72;63.28;101988.69;7393522;19;20018;-64
2022/05/18 09:03:18;;;;;;;26.85;18.33;;;;;;;21.98;62.25;101988.59;7394212;19;20015;-63
2022/05/18 09:05:55;;;;;;;24.05;18.35;;;;;;;21.73;62.60;101989.53;7393952;19;20022;-63
2022/05/18 09:08:28;;;;;;;21.58;18.52;;;;;;;21.52;63.53;101989.28;7393755;19;20029;-64
2022/05/18 09:11:04;;;;;;;40.72;19.23;;;;;;;21.67;63.86;101993.50;7394673;19;20026;-63
2022/05/18 09:13:37;;;;;;;22.38;17.23;;;;;;;22.10;62.55;101986.81;7394919;19;20041;-64
2022/05/18 09:16:19;;;;;;;25.80;16.58;;;;;;;22.21;63.12;101992.22;7393529;19;20074;-63
2022/05/18 09:18:56;;;;;;;32.05;17.52;;;;;;;22.20;62.10;101995.84;7393065;19;20018;-64
2022/05/18 09:21:34;;;;;;;25.20;17.73;;;;;;;21.97;62.43;101994.06;7395255;19;20392;-65
2022/05/18 09:24:18;;;;;;;19.95;16.90;;;;;;;22.11;62.73;101993.88;7394356;19;20019;-65
2022/05/18 09:27:14;;;;;;;26.48;15.18;;;;;;;22.73;61.70;101991.91;7392700;19;20511;-62
2022/05/18 09:29:51;;;;;;;24.00;15.68;;;;;;;22.72;60.87;101990.19;7394539;19;20031;-64
2022/05/18 09:32:39;;;;;;;19.85;15.05;;;;;;;22.66;61.59;101988.84;7398333;19;20483;-65
2022/05/18 09:35:29;;;;;;;24.23;16.65;;;;;;;22.79;61.77;101989.59;7393857;19;20459;-61
2022/05/18 09:38:03;;;;;;;19.30;16.27;;;;;;;22.64;60.74;101982.78;7392989;19;20034;-63
2022/05/18 09:40:36;;;;;;;25.95;18.27;;;;;;;22.88;61.73;101980.03;7393078;19;20504;-63
2022/05/18 09:43:11;;;;;;;23.75;17.55;;;;;;;22.94;61.81;101982.22;7393497;19;20460;-62
2022/05/18 09:45:47;;;;;;;21.27;17.40;;;;;;;22.62;62.00;101985.56;7392446;19;20015;-63
2022/05/18 09:48:19;;;;;;;28.17;17.33;;;;;;;22.79;62.49;101986.91;7394745;19;20029;-63
2022/05/18 09:50:50;;;;;;;20.50;16.40;;;;;;;22.92;61.61;101988.63;7392597;19;20022;-61
2022/05/18 09:53:21;;;;;;;21.70;14.15;;;;;;;22.96;61.97;101982.94;7393375;19;20018;-64
2022/05/18 09:55:52;;;;;;;20.45;16.17;;;;;;;23.36;59.68;101986.97;7392040;19;20033;-64
2022/05/18 09:58:27;;;;;;;42.25;16.48;;;;;;;23.36;60.32;101999.50;7393852;19;20021;-63
2022/05/18 10:09:23;;;;;;;21.73;13.73;;;;;;;23.71;59.61;101985.91;7391474;19;20081;-65
2022/05/18 10:11:51;;;;;;;23.45;12.98;;;;;;;24.04;57.27;101992.19;7393330;19;20011;-64
2022/05/18 10:14:34;;;;;;;15.70;14.00;;;;;;;23.67;58.55;101987.19;7393821;19;20336;-66
2022/05/18 10:17:10;;;;;;;15.02;12.40;;;;;;;23.99;58.54;101991.72;7391056;19;20022;-61
2022/05/18 10:19:46;;;;;;;26.85;15.18;;;;;;;23.60;58.62;101989.50;7392899;19;20452;-62
2022/05/18 10:22:21;;;;;;;21.05;13.98;;;;;;;23.61;59.01;101985.84;7392617;19;20019;-64
2022/05/18 10:24:55;;;;;;;24.77;13.48;;;;;;;23.90;59.59;101984.44;7391712;19;20434;-65
2022/05/18 10:27:31;;;;;;;18.45;13.98;;;;;;;24.09;58.00;101989.13;7392474;19;20025;-64
2022/05/18 10:30:08;;;;;;;15.90;13.50;;;;;;;23.92;59.26;101978.00;7395487;19;20125;-64
2022/05/18 10:32:55;;;;;;;17.60;11.43;;;;;;;24.35;59.04;101976.22;7400473;19;20119;-63
2022/05/18 10:35:35;;;;;;;15.70;12.65;;;;;;;24.39;58.06;101976.81;7398500;19;20022;-64
2022/05/18 10:38:17;;;;;;;20.77;13.40;;;;;;;23.88;58.67;101968.50;7399744;19;20021;-64
2022/05/18 10:40:46;;;;;;;14.80;12.50;;;;;;;24.10;58.62;101964.91;7398866;19;20019;-65
2022/05/18 10:43:29;;;;;;;15.50;12.35;;;;;;;23.80;57.69;101968.28;7399177;19;20018;-64
2022/05/18 10:46:00;;;;;;;16.25;12.00;;;;;;;23.80;57.10;101965.59;7397801;19;20516;-64
2022/05/18 10:48:34;;;;;;;13.73;11.60;;;;;;;24.10;56.28;101964.03;7398430;19;20011;-63
2022/05/18 10:51:06;;;;;;;15.40;10.73;;;;;;;24.51;56.67;101967.72;7398232;19;20045;-64
2022/05/18 10:53:39;;;;;;;16.23;10.60;;;;;;;24.25;55.37;101965.44;7399672;19;20508;-62
2022/05/18 10:56:10;;;;;;;;;;;;;;;24.34;55.05;101962.00;7397779;19;20018;-64
2022/05/18 10:58:45;;;;;;;14.13;10.55;;;;;;;24.35;55.59;101958.31;7399251;19;19925;-64
2022/05/18 11:01:19;;;;;;;15.52;9.80;;;;;;;24.81;53.49;101963.41;7399457;19;20025;-63
2022/05/18 11:03:58;;;;;;;17.45;13.60;;;;;;;24.15;55.18;101957.31;7398376;19;20049;-61
2022/05/18 11:06:30;;;;;;;27.90;12.77;;;;;;;25.22;52.84;101951.72;7396590;19;20037;-63
2022/05/18 11:09:02;;;;;;;16.60;11.68;;;;;;;24.78;53.73;101948.44;7396955;19;20007;-60
2022/05/18 11:11:43;;;;;;;19.23;14.07;;;;;;;24.78;53.47;101947.59;7398521;19;20015;-64
2022/05/18 11:14:33;;;;;;;23.40;13.30;;;;;;;24.92;53.68;101949.06;7398399;19;20025;-61
2022/05/18 11:17:23;;;;;;;15.05;13.07;;;;;;;24.91;54.20;101942.00;7395141;19;20026;-63
2022/05/18 11:20:04;;;;;;;16.60;14.07;;;;;;;24.87;54.07;101949.47;7397158;19;20017;-63
2022/05/18 11:22:37;;;;;;;15.88;11.98;;;;;;;25.20;52.64;101948.34;7397598;19;20037;-62
2022/05/18 11:25:16;;;;;;;45.38;12.77;;;;;;;25.81;50.56;101959.91;7397531;19;20035;-64
2022/05/18 11:27:51;;;;;;;13.50;10.30;;;;;;;25.46;52.26;101950.53;7398134;19;20314;-63
2022/05/18 11:30:27;;;;;;;30.02;11.55;;;;;;;26.15;50.12;101956.84;7393002;19;20018;-63
2022/05/18 11:33:07;;;;;;;19.20;11.85;;;;;;;25.41;51.90;101954.63;7397636;19;20029;-62
2022/05/18 11:35:49;;;;;;;19.92;11.10;;;;;;;25.74;51.23;101950.72;7396705;19;20024;-61
2022/05/18 11:38:33;;;;;;;19.58;9.57;;;;;;;26.09;51.14;101949.31;7398326;19;20038;-62
2022/05/18 11:41:18;;;;;;;21.08;10.70;;;;;;;26.07;51.98;101946.78;7395949;19;20022;-64
2022/05/18 11:43:59;;;;;;;18.17;10.93;;;;;;;26.08;49.75;101959.22;7397409;19;20014;-63
2022/05/18 11:46:43;;;;;;;63.55;14.13;;;;;;;25.88;51.02;101950.28;7395316;19;20026;-65
2022/05/18 11:49:20;;;;;;;15.77;9.60;;;;;;;26.36;50.55;101945.06;7396082;19;20015;-60
2022/05/18 11:52:05;;;;;;;35.47;11.48;;;;;;;26.31;50.94;101944.66;7397606;19;20018;-62
2022/05/18 11:54:46;;;;;;;59.17;12.82;;;;;;;26.07;51.35;101944.09;7398442;19;20017;-62
2022/05/18 11:57:27;;;;;;;17.55;9.32;;;;;;;25.99;51.27;101949.31;7406630;19;20014;-65